Time;durP1;ratioP1;P1;durP2;ratioP2;P2;SDS_P1;SDS_P2;PMS_P1;PMS_P2;Temp;Humidity;BMP_temperature;BMP_pressure;BME280_temperature;BME280_humidity;BME280_pressure;Samples;Min_cycle;Max_cycle;Signal;HPM_P1;HPM_P2
2022/04/22 00:01:18;;;;;;;7.60;6.27;;;;;;;;;;5113810;28;20281;-51
2022/04/22 00:03:46;;;;;;;6.60;5.80;;;;;;;;;;5113912;28;20197;-51
2022/04/22 00:06:13;;;;;;;7.03;6.33;;;;;;;;;;5113853;28;20209;-52
2022/04/22 00:08:39;;;;;;;7.43;6.00;;;;;;;;;;5113697;28;20660;-52
2022/04/22 00:13:50;;;;;;;6.73;6.07;;;;;;;;;;5113331;28;20592;-51
2022/04/22 00:16:19;;;;;;;6.63;5.97;;;;;;;;;;5112673;28;20228;-51
2022/04/22 00:18:47;;;;;;;9.93;5.90;;;;;;;;;;5113661;28;20218;-52
2022/04/22 00:21:13;;;;;;;7.07;6.30;;;;;;;;;;5113575;28;20297;-50
2022/04/22 00:23:39;;;;;;;7.13;5.93;;;;;;;;;;5113426;28;20225;-52
2022/04/22 00:26:05;;;;;;;10.03;6.23;;;;;;;;;;5113116;28;20769;-51
2022/04/22 00:28:31;;;;;;;6.93;6.10;;;;;;;;;;5112978;28;20194;-50
2022/04/22 00:30:57;;;;;;;8.10;6.17;;;;;;;;;;5113340;28;20225;-50
2022/04/22 00:33:23;;;;;;;9.03;5.73;;;;;;;;;;5113083;28;20247;-51
2022/04/22 00:35:50;;;;;;;8.90;5.97;;;;;;;;;;5113248;28;20202;-50
2022/04/22 00:38:16;;;;;;;8.50;6.10;;;;;;;;;;5113103;28;20310;-51
2022/04/22 00:40:42;;;;;;;7.40;5.70;;;;;;;;;;5111322;28;20240;-50
2022/04/22 00:43:15;;;;;;;9.43;5.73;;;;;;;;;;5113008;28;20198;-50
2022/04/22 00:45:41;;;;;;;8.87;5.90;;;;;;;;;;5113050;28;20197;-52
2022/04/22 00:48:10;;;;;;;7.60;6.10;;;;;;;;;;5112891;28;20285;-49
2022/04/22 00:50:38;;;;;;;7.70;6.00;;;;;;;;;;5112852;28;20209;-52
2022/04/22 00:53:09;;;;;;;8.40;6.73;;;;;;;;;;5112639;28;20206;-50
2022/04/22 00:55:36;;;;;;;10.27;6.20;;;;;;;;;;5112839;28;20651;-50
2022/04/22 00:58:02;;;;;;;7.80;6.43;;;;;;;;;;5112583;28;20226;-51
2022/04/22 01:00:28;;;;;;;8.43;5.63;;;;;;;;;;5112713;28;20566;-50
2022/04/22 01:02:54;;;;;;;7.43;6.60;;;;;;;;;;5112837;28;20208;-51
2022/04/22 01:10:52;;;;;;;8.67;6.40;;;;;;;;;;5112770;28;20209;-51
2022/04/22 01:13:18;;;;;;;7.80;6.27;;;;;;;;;;5112362;28;20198;-51
2022/04/22 01:15:44;;;;;;;7.33;6.43;;;;;;;;;;5112662;28;20202;-52
2022/04/22 01:18:10;;;;;;;8.60;6.47;;;;;;;;;;5112478;28;20692;-51
2022/04/22 01:20:36;;;;;;;7.67;6.23;;;;;;;;;;5112516;28;20202;-51
2022/04/22 01:23:04;;;;;;;7.20;5.87;;;;;;;;;;5112375;28;20194;-51
2022/04/22 01:25:30;;;;;;;8.10;6.07;;;;;;;;;;5112429;28;20773;-51
2022/04/22 01:27:56;;;;;;;7.57;5.83;;;;;;;;;;5112257;28;20282;-51
2022/04/22 01:30:23;;;;;;;10.67;6.47;;;;;;;;;;5112268;28;20201;-52
2022/04/22 01:32:50;;;;;;;9.13;6.27;;;;;;;;;;5112387;28;20675;-52
2022/04/22 01:35:16;;;;;;;8.80;5.67;;;;;;;;;;5112436;28;20572;-51
2022/04/22 01:37:43;;;;;;;7.37;5.60;;;;;;;;;;5112316;28;20313;-51
2022/04/22 01:40:11;;;;;;;10.03;6.30;;;;;;;;;;5112212;28;20206;-51
2022/04/22 01:42:37;;;;;;;8.03;6.37;;;;;;;;;;5112036;28;20202;-51
2022/04/22 01:45:05;;;;;;;10.23;5.10;;;;;;;;;;5112184;28;20205;-50
2022/04/22 01:47:31;;;;;;;7.23;5.73;;;;;;;;;;5112199;28;20317;-51
2022/04/22 01:49:57;;;;;;;7.43;5.27;;;;;;;;;;5112423;28;20201;-51
2022/04/22 01:52:24;;;;;;;6.80;5.50;;;;;;;;;;5112061;28;20293;-55
2022/04/22 01:54:51;;;;;;;7.00;5.30;;;;;;;;;;5112085;28;20284;-50
2022/04/22 01:57:19;;;;;;;9.40;5.60;;;;;;;;;;5112185;28;20247;-52
2022/04/22 01:59:46;;;;;;;9.20;5.57;;;;;;;;;;5112244;28;20207;-51
2022/04/22 02:02:12;;;;;;;7.03;5.43;;;;;;;;;;5112213;28;20225;-50
2022/04/22 02:04:38;;;;;;;8.67;5.17;;;;;;;;;;5111997;28;20226;-51
2022/04/22 02:07:05;;;;;;;8.23;5.00;;;;;;;;;;5110352;28;20285;-50
2022/04/22 02:09:31;;;;;;;8.60;5.20;;;;;;;;;;5111944;28;20593;-50
2022/04/22 02:11:57;;;;;;;9.30;5.23;;;;;;;;;;5112057;28;20233;-50
2022/04/22 02:14:25;;;;;;;7.07;4.63;;;;;;;;;;5111672;28;20238;-51
2022/04/22 02:16:51;;;;;;;6.17;4.80;;;;;;;;;;5112018;28;20214;-51
2022/04/22 02:19:18;;;;;;;6.57;4.03;;;;;;;;;;5111922;28;20288;-50
2022/04/22 02:21:44;;;;;;;4.97;4.03;;;;;;;;;;5111995;28;20717;-50
2022/04/22 02:24:10;;;;;;;7.63;4.13;;;;;;;;;;5111832;28;20218;-50
2022/04/22 02:29:22;;;;;;;5.77;3.93;;;;;;;;;;5111848;28;20235;-51
2022/04/22 02:31:52;;;;;;;4.63;3.70;;;;;;;;;;5112030;28;20194;-51
2022/04/22 02:34:19;;;;;;;6.63;3.83;;;;;;;;;;5111910;28;20206;-51
2022/04/22 02:36:45;;;;;;;7.27;3.73;;;;;;;;;;5111579;28;20229;-50
2022/04/22 02:39:11;;;;;;;6.03;3.80;;;;;;;;;;5113317;28;20209;-50
2022/04/22 02:47:08;;;;;;;7.30;4.00;;;;;;;;;;5115415;28;20945;-51
2022/04/22 02:49:34;;;;;;;5.47;3.50;;;;;;;;;;5115205;28;20206;-50
2022/04/22 02:52:01;;;;;;;9.37;3.70;;;;;;;;;;5115232;28;20561;-51
2022/04/22 02:54:30;;;;;;;4.57;3.77;;;;;;;;;;5115219;28;20205;-50
2022/04/22 02:56:56;;;;;;;4.80;3.80;;;;;;;;;;5115225;28;20238;-50
2022/04/22 02:59:22;;;;;;;5.13;3.30;;;;;;;;;;5114987;28;20343;-51
2022/04/22 03:01:48;;;;;;;7.30;3.57;;;;;;;;;;5115166;28;20229;-51
2022/04/22 03:04:16;;;;;;;4.40;3.20;;;;;;;;;;5114802;28;20240;-50
2022/04/22 03:06:43;;;;;;;4.33;3.37;;;;;;;;;;5114952;28;20217;-50
2022/04/22 03:09:09;;;;;;;5.00;3.10;;;;;;;;;;5112978;28;20201;-50
2022/04/22 03:11:35;;;;;;;3.83;2.80;;;;;;;;;;5114553;28;20288;-50
2022/04/22 03:14:03;;;;;;;5.43;3.43;;;;;;;;;;5114345;28;20366;-51
2022/04/22 03:16:29;;;;;;;6.13;3.10;;;;;;;;;;5114596;28;20202;-51
2022/04/22 03:18:55;;;;;;;6.50;2.83;;;;;;;;;;5113004;28;20233;-51
2022/04/22 03:21:22;;;;;;;3.00;2.60;;;;;;;;;;5114643;28;20209;-51
2022/04/22 03:23:48;;;;;;;4.53;2.90;;;;;;;;;;5114465;28;20645;-51
2022/04/22 03:26:14;;;;;;;4.40;2.87;;;;;;;;;;5114645;28;20201;-50
2022/04/22 03:28:40;;;;;;;5.17;2.70;;;;;;;;;;5114420;28;20285;-51
2022/04/22 03:31:06;;;;;;;6.17;2.97;;;;;;;;;;5114350;28;20228;-51
2022/04/22 03:33:32;;;;;;;5.50;2.87;;;;;;;;;;5114362;28;20213;-50
2022/04/22 03:35:58;;;;;;;3.47;2.80;;;;;;;;;;5114436;28;20194;-51
2022/04/22 03:38:27;;;;;;;3.90;2.83;;;;;;;;;;5114191;28;20234;-51
2022/04/22 03:40:54;;;;;;;2.80;2.60;;;;;;;;;;5114364;28;20266;-51
2022/04/22 03:43:20;;;;;;;3.63;2.47;;;;;;;;;;5114066;28;20198;-50
2022/04/22 03:45:48;;;;;;;4.80;2.90;;;;;;;;;;5114374;28;20198;-50
2022/04/22 03:48:14;;;;;;;3.77;2.70;;;;;;;;;;5114191;28;20576;-54
2022/04/22 03:50:40;;;;;;;4.20;2.90;;;;;;;;;;5113841;28;20559;-50
2022/04/22 03:53:07;;;;;;;3.97;2.50;;;;;;;;;;5114150;28;20209;-50
2022/04/22 03:55:34;;;;;;;8.33;2.67;;;;;;;;;;5113951;28;20209;-50
2022/04/22 03:58:12;;;;;;;3.43;2.87;;;;;;;;;;5113989;28;20230;-51
2022/04/22 04:00:40;;;;;;;3.83;2.63;;;;;;;;;;5113926;28;20922;-51
2022/04/22 04:03:06;;;;;;;3.57;2.67;;;;;;;;;;5113961;28;20193;-51
2022/04/22 04:05:33;;;;;;;4.97;2.47;;;;;;;;;;5113757;28;20285;-50
2022/04/22 04:07:59;;;;;;;4.77;2.80;;;;;;;;;;5113975;28;20273;-51
2022/04/22 04:16:00;;;;;;;2.60;2.40;;;;;;;;;;5071746;27;20212;-51
2022/04/22 04:18:27;;;;;;;3.90;2.40;;;;;;;;;;5113491;28;20234;-52
2022/04/22 04:23:38;;;;;;;5.33;2.90;;;;;;;;;;5113419;28;20411;-52
2022/04/22 04:26:06;;;;;;;5.20;2.70;;;;;;;;;;5113278;28;20216;-52
2022/04/22 04:28:34;;;;;;;6.57;2.57;;;;;;;;;;5113255;28;20214;-52
2022/04/22 04:31:00;;;;;;;4.07;2.63;;;;;;;;;;5113250;28;20194;-52
2022/04/22 04:33:26;;;;;;;4.93;2.53;;;;;;;;;;5113177;28;20235;-51
2022/04/22 04:35:52;;;;;;;4.57;2.50;;;;;;;;;;5113159;28;20635;-52
2022/04/22 04:38:18;;;;;;;3.60;2.50;;;;;;;;;;5112987;28;20699;-52
2022/04/22 04:40:44;;;;;;;4.03;2.60;;;;;;;;;;5113336;28;20194;-52
2022/04/22 04:43:10;;;;;;;3.23;2.70;;;;;;;;;;5111394;28;20285;-52
2022/04/22 04:45:37;;;;;;;3.97;2.57;;;;;;;;;;5113025;28;20273;-51
2022/04/22 04:48:04;;;;;;;9.13;2.70;;;;;;;;;;5112924;28;20198;-52
2022/04/22 04:50:33;;;;;;;4.63;2.57;;;;;;;;;;5112846;28;20664;-52
2022/04/22 04:52:59;;;;;;;3.60;2.20;;;;;;;;;;5113054;28;20194;-52
2022/04/22 04:55:26;;;;;;;5.00;2.37;;;;;;;;;;5112821;28;20209;-52
2022/04/22 04:57:52;;;;;;;2.57;2.37;;;;;;;;;;5112779;28;20221;-52
2022/04/22 05:00:18;;;;;;;3.93;2.63;;;;;;;;;;5112612;28;20246;-52
2022/04/22 05:02:46;;;;;;;3.03;2.30;;;;;;;;;;5112294;28;20698;-51
2022/04/22 05:05:12;;;;;;;5.00;2.47;;;;;;;;;;5112743;28;20224;-52
2022/04/22 05:07:47;;;;;;;3.97;2.77;;;;;;;;;;5112428;28;20198;-51
2022/04/22 05:10:13;;;;;;;2.90;2.50;;;;;;;;;;5112762;28;20202;-51
2022/04/22 05:12:39;;;;;;;4.77;2.80;;;;;;;;;;5112241;28;20251;-51
2022/04/22 05:15:08;;;;;;;3.63;2.57;;;;;;;;;;5112374;28;20265;-52
2022/04/22 05:17:34;;;;;;;3.67;2.40;;;;;;;;;;5111939;28;20696;-52
2022/04/22 05:20:01;;;;;;;3.30;2.40;;;;;;;;;;5111822;28;20545;-51
2022/04/22 05:22:27;;;;;;;2.93;2.60;;;;;;;;;;5111941;28;20233;-52
2022/04/22 05:24:53;;;;;;;3.40;2.47;;;;;;;;;;5112152;28;20245;-51
2022/04/22 05:27:19;;;;;;;3.33;2.53;;;;;;;;;;5112149;28;20542;-52
2022/04/22 05:32:39;;;;;;;3.23;2.70;;;;;;;;;;5112352;28;20196;-51
2022/04/22 05:35:08;;;;;;;2.83;2.50;;;;;;;;;;5112001;28;20194;-51
2022/04/22 05:37:47;;;;;;;3.63;2.40;;;;;;;;;;5111864;28;20214;-51
2022/04/22 05:40:14;;;;;;;3.90;2.50;;;;;;;;;;5112268;28;20205;-51
2022/04/22 05:42:40;;;;;;;4.57;2.43;;;;;;;;;;5111589;28;20205;-52
2022/04/22 05:45:07;;;;;;;6.57;2.70;;;;;;;;;;5112058;28;20206;-51
2022/04/22 05:47:33;;;;;;;5.00;3.00;;;;;;;;;;5112043;28;20235;-51
2022/04/22 05:49:59;;;;;;;4.33;2.73;;;;;;;;;;5112181;28;20198;-51
2022/04/22 05:52:26;;;;;;;3.17;2.67;;;;;;;;;;5111826;28;20232;-50
2022/04/22 05:54:53;;;;;;;5.00;2.60;;;;;;;;;;5111987;28;20217;-51
2022/04/22 05:57:19;;;;;;;4.03;2.80;;;;;;;;;;5111938;28;20243;-51
2022/04/22 05:59:45;;;;;;;4.40;2.87;;;;;;;;;;5112091;28;20202;-52
2022/04/22 06:02:11;;;;;;;3.30;2.57;;;;;;;;;;5111976;28;20202;-52
2022/04/22 06:04:37;;;;;;;10.53;3.10;;;;;;;;;;5111846;28;20194;-52
2022/04/22 06:07:04;;;;;;;4.13;2.90;;;;;;;;;;5111830;28;20194;-51
2022/04/22 06:12:16;;;;;;;6.03;2.57;;;;;;;;;;5111827;28;20267;-52
2022/04/22 06:14:44;;;;;;;3.83;2.77;;;;;;;;;;5114165;28;20242;-53
2022/04/22 06:17:10;;;;;;;4.93;3.10;;;;;;;;;;5115368;27;20275;-51
2022/04/22 06:19:36;;;;;;;3.87;3.00;;;;;;;;;;5115425;28;20194;-51
2022/04/22 06:22:02;;;;;;;7.20;3.07;;;;;;;;;;5115719;28;20277;-53
2022/04/22 06:24:28;;;;;;;5.10;3.10;;;;;;;;;;5115402;28;20240;-51
2022/04/22 06:26:56;;;;;;;3.70;3.30;;;;;;;;;;5115547;28;20205;-52
2022/04/22 06:29:22;;;;;;;5.90;3.40;;;;;;;;;;5115303;28;20543;-52
2022/04/22 06:31:48;;;;;;;4.73;3.00;;;;;;;;;;5115308;28;20259;-51
2022/04/22 06:34:14;;;;;;;3.97;3.03;;;;;;;;;;5115104;28;20256;-52
2022/04/22 06:36:41;;;;;;;5.27;3.17;;;;;;;;;;5115227;28;20233;-52
2022/04/22 06:39:07;;;;;;;5.80;3.00;;;;;;;;;;5115392;28;20190;-51
2022/04/22 06:45:46;;;;;;;5.37;3.17;;;;;;;;;;5115287;28;20193;-52
2022/04/22 06:47:13;;;;;;;4.67;3.43;;;;;;;;;;5115026;28;20225;-52
2022/04/22 06:49:40;;;;;;;3.80;3.00;;;;;;;;;;5114912;28;20194;-52
2022/04/22 06:52:06;;;;;;;3.10;2.80;;;;;;;;;;5114945;28;20232;-52
2022/04/22 06:54:33;;;;;;;3.53;3.23;;;;;;;;;;5114958;28;20221;-52
2022/04/22 06:57:00;;;;;;;6.57;3.53;;;;;;;;;;5114960;28;20225;-51
2022/04/22 06:59:28;;;;;;;5.10;3.73;;;;;;;;;;5114853;28;20212;-51
2022/04/22 07:01:54;;;;;;;6.20;3.43;;;;;;;;;;5114761;28;20225;-52
2022/04/22 07:04:22;;;;;;;6.20;3.47;;;;;;;;;;5114706;28;20255;-50
2022/04/22 07:06:48;;;;;;;6.07;3.30;;;;;;;;;;5114796;28;20204;-51
2022/04/22 07:09:14;;;;;;;9.17;3.77;;;;;;;;;;5114898;28;20190;-51
2022/04/22 07:11:41;;;;;;;7.43;3.80;;;;;;;;;;5114501;28;20202;-52
2022/04/22 07:14:07;;;;;;;7.97;3.23;;;;;;;;;;5114560;28;20398;-51
2022/04/22 07:16:35;;;;;;;4.70;3.50;;;;;;;;;;5114466;28;20289;-53
2022/04/22 07:19:01;;;;;;;6.30;3.80;;;;;;;;;;5114486;28;20209;-52
2022/04/22 07:21:27;;;;;;;5.33;3.57;;;;;;;;;;5114555;28;20201;-52
2022/04/22 07:23:55;;;;;;;6.63;3.50;;;;;;;;;;5114413;28;20228;-52
2022/04/22 07:26:21;;;;;;;5.27;3.50;;;;;;;;;;5114133;28;20247;-51
2022/04/22 07:28:48;;;;;;;16.40;4.60;;;;;;;;;;5114531;27;20204;-52
2022/04/22 07:31:15;;;;;;;8.83;3.87;;;;;;;;;;5114437;28;20204;-52
2022/04/22 07:33:43;;;;;;;5.70;3.77;;;;;;;;;;5114079;28;20198;-55
2022/04/22 07:36:09;;;;;;;5.60;3.47;;;;;;;;;;5114185;28;20198;-51
2022/04/22 07:38:36;;;;;;;4.93;3.87;;;;;;;;;;5113791;28;20723;-53
2022/04/22 07:41:02;;;;;;;8.40;3.43;;;;;;;;;;5114080;28;20201;-52
2022/04/22 07:48:59;;;;;;;6.07;3.80;;;;;;;;;;5114098;28;20263;-53
2022/04/22 07:51:26;;;;;;;4.37;3.60;;;;;;;;;;5113747;28;20213;-53
2022/04/22 07:53:52;;;;;;;7.23;3.40;;;;;;;;;;5113700;28;20760;-53
2022/04/22 07:56:18;;;;;;;5.30;3.50;;;;;;;;;;5113881;28;20194;-53
2022/04/22 07:58:44;;;;;;;5.10;3.30;;;;;;;;;;5113599;28;20228;-53
2022/04/22 08:01:10;;;;;;;3.57;2.70;;;;;;;;;;5113751;28;20285;-54
2022/04/22 08:03:36;;;;;;;8.03;3.63;;;;;;;;;;5113399;28;20293;-52
2022/04/22 08:06:03;;;;;;;3.83;3.20;;;;;;;;;;5113797;28;20198;-53
2022/04/22 08:08:30;;;;;;;3.90;3.27;;;;;;;;;;5113524;28;20218;-52
2022/04/22 08:10:56;;;;;;;4.93;2.97;;;;;;;;;;5113621;28;20198;-53
2022/04/22 08:13:24;;;;;;;4.00;2.80;;;;;;;;;;5113035;28;20537;-54
2022/04/22 08:15:50;;;;;;;5.50;3.10;;;;;;;;;;5113805;28;20198;-54
2022/04/22 08:18:16;;;;;;;3.37;2.90;;;;;;;;;;5113239;28;20325;-52
2022/04/22 08:20:42;;;;;;;4.03;3.00;;;;;;;;;;5113138;28;20321;-54
2022/04/22 08:23:09;;;;;;;6.77;3.40;;;;;;;;;;5113171;28;20684;-53
2022/04/22 08:25:35;;;;;;;3.90;3.23;;;;;;;;;;5112885;28;20267;-52
2022/04/22 08:28:04;;;;;;;7.37;3.10;;;;;;;;;;5113110;28;20201;-52
2022/04/22 08:30:31;;;;;;;6.23;3.00;;;;;;;;;;5113155;28;20194;-52
2022/04/22 08:33:01;;;;;;;4.67;2.70;;;;;;;;;;5113234;28;20198;-53
2022/04/22 08:35:27;;;;;;;4.43;2.93;;;;;;;;;;5112861;28;20199;-54
2022/04/22 08:37:53;;;;;;;6.37;2.90;;;;;;;;;;5111879;28;20687;-56
2022/04/22 08:40:20;;;;;;;4.20;3.00;;;;;;;;;;5112721;28;20251;-52
2022/04/22 08:42:47;;;;;;;6.67;2.80;;;;;;;;;;5112918;28;20197;-53
2022/04/22 08:45:13;;;;;;;4.23;2.80;;;;;;;;;;5112639;28;20201;-54
2022/04/22 08:50:26;;;;;;;4.20;2.80;;;;;;;;;;5112796;28;20228;-54
2022/04/22 08:52:55;;;;;;;4.93;2.60;;;;;;;;;;5112729;28;20214;-53
2022/04/22 08:55:23;;;;;;;3.70;2.43;;;;;;;;;;5112652;28;20232;-54
2022/04/22 08:57:49;;;;;;;3.87;2.50;;;;;;;;;;5112455;28;20309;-51
2022/04/22 09:00:16;;;;;;;3.57;2.60;;;;;;;;;;5112770;28;20218;-55
2022/04/22 09:02:43;;;;;;;5.30;2.80;;;;;;;;;;5112513;28;20226;-54
2022/04/22 09:05:09;;;;;;;4.33;2.80;;;;;;;;;;5112238;28;20574;-54
2022/04/22 09:07:37;;;;;;;4.30;2.60;;;;;;;;;;5112250;28;20205;-53
2022/04/22 09:10:03;;;;;;;3.33;2.93;;;;;;;;;;5112126;28;20721;-54
2022/04/22 09:12:31;;;;;;;4.90;2.60;;;;;;;;;;5112278;28;20665;-53
2022/04/22 09:14:58;;;;;;;6.07;3.03;;;;;;;;;;5112376;28;20239;-54
2022/04/22 09:17:25;;;;;;;4.40;2.77;;;;;;;;;;5110849;28;20233;-55
2022/04/22 09:19:54;;;;;;;3.03;2.70;;;;;;;;;;5112645;28;20637;-54
2022/04/22 09:22:21;;;;;;;6.57;2.90;;;;;;;;;;5112589;28;20721;-55
2022/04/22 09:24:48;;;;;;;3.83;2.80;;;;;;;;;;5112514;28;20690;-54
2022/04/22 09:27:14;;;;;;;3.30;2.60;;;;;;;;;;5112495;28;20199;-54
2022/04/22 09:29:41;;;;;;;4.07;2.73;;;;;;;;;;5112339;28;20204;-54
2022/04/22 09:32:10;;;;;;;3.20;2.60;;;;;;;;;;5112477;28;20678;-54
2022/04/22 09:34:39;;;;;;;5.33;2.70;;;;;;;;;;5112201;28;20218;-54
2022/04/22 09:42:48;;;;;;;4.30;3.00;;;;;;;;;;5112394;28;20200;-55
2022/04/22 09:45:16;;;;;;;3.60;2.60;;;;;;;;;;5112343;28;20241;-54
2022/04/22 09:47:42;;;;;;;4.13;2.57;;;;;;;;;;5113104;28;20194;-54
2022/04/22 09:50:12;;;;;;;4.40;2.87;;;;;;;;;;5116515;28;20182;-54
2022/04/22 09:52:48;;;;;;;5.17;2.87;;;;;;;;;;5114952;28;20198;-54
2022/04/22 09:55:18;;;;;;;4.70;2.77;;;;;;;;;;5116645;28;20204;-54
2022/04/22 09:57:52;;;;;;;3.43;2.80;;;;;;;;;;5116210;28;20229;-54
2022/04/22 10:00:19;;;;;;;4.57;2.93;;;;;;;;;;5116325;28;20225;-54
2022/04/22 10:02:50;;;;;;;6.77;3.23;;;;;;;;;;5116131;28;20251;-54
2022/04/22 10:05:17;;;;;;;3.60;3.00;;;;;;;;;;5116421;28;20229;-53
2022/04/22 10:07:43;;;;;;;3.77;2.60;;;;;;;;;;5115859;28;20219;-54
2022/04/22 10:10:11;;;;;;;6.43;3.30;;;;;;;;;;5115855;28;20198;-54
2022/04/22 10:12:38;;;;;;;6.07;3.27;;;;;;;;;;5115539;28;20248;-57
2022/04/22 10:15:08;;;;;;;5.57;3.40;;;;;;;;;;5115504;28;20311;-55
2022/04/22 10:17:39;;;;;;;5.63;3.03;;;;;;;;;;5115778;28;20222;-55
2022/04/22 10:20:06;;;;;;;5.30;3.43;;;;;;;;;;5115899;27;20198;-54
2022/04/22 10:22:33;;;;;;;6.90;3.10;;;;;;;;;;5115728;28;20205;-55
2022/04/22 10:25:02;;;;;;;6.77;3.40;;;;;;;;;;5115833;28;20583;-54
2022/04/22 10:27:31;;;;;;;4.70;3.00;;;;;;;;;;5115691;28;20609;-54
2022/04/22 10:29:59;;;;;;;5.63;2.97;;;;;;;;;;5115790;28;20202;-53
2022/04/22 10:32:25;;;;;;;6.07;3.20;;;;;;;;;;5115436;28;20277;-55
2022/04/22 10:34:57;;;;;;;6.27;3.50;;;;;;;;;;5115585;28;20292;-53
2022/04/22 10:37:25;;;;;;;4.07;3.40;;;;;;;;;;5115245;28;20735;-53
2022/04/22 10:39:51;;;;;;;4.87;3.63;;;;;;;;;;5115392;27;20202;-54
2022/04/22 10:42:17;;;;;;;4.30;3.33;;;;;;;;;;5115171;28;20537;-54
2022/04/22 10:47:38;;;;;;;6.80;3.83;;;;;;;;;;5115170;28;20201;-55
2022/04/22 10:50:22;;;;;;;4.87;3.70;;;;;;;;;;5115192;28;20209;-55
2022/04/22 10:52:56;;;;;;;4.20;3.30;;;;;;;;;;5115130;28;20195;-55
2022/04/22 10:55:21;;;;;;;7.90;4.30;;;;;;;;;;5115115;28;20652;-53
2022/04/22 10:57:51;;;;;;;7.40;3.57;;;;;;;;;;5114616;28;20275;-54
2022/04/22 11:00:30;;;;;;;4.73;3.57;;;;;;;;;;5114116;28;20198;-54
2022/04/22 11:03:03;;;;;;;4.40;3.47;;;;;;;;;;5115008;28;20712;-54
2022/04/22 11:05:37;;;;;;;5.00;3.30;;;;;;;;;;5113131;28;20219;-54
2022/04/22 11:08:05;;;;;;;5.27;3.40;;;;;;;;;;5114583;28;20648;-54
2022/04/22 11:10:46;;;;;;;7.03;4.07;;;;;;;;;;5114953;28;20372;-54
2022/04/22 11:13:26;;;;;;;5.20;3.23;;;;;;;;;;5114725;28;20223;-53
2022/04/22 11:15:52;;;;;;;4.90;3.70;;;;;;;;;;5114874;28;20599;-54
2022/04/22 11:18:21;;;;;;;5.90;4.00;;;;;;;;;;5114528;28;20218;-55
2022/04/22 11:20:52;;;;;;;4.00;3.30;;;;;;;;;;5114576;28;20210;-55
2022/04/22 11:23:18;;;;;;;4.80;3.73;;;;;;;;;;5114354;28;20227;-54
2022/04/22 11:25:46;;;;;;;5.47;3.70;;;;;;;;;;5114132;28;20305;-54
2022/04/22 11:28:13;;;;;;;5.33;3.60;;;;;;;;;;5114555;28;20214;-54
2022/04/22 11:30:39;;;;;;;5.17;3.40;;;;;;;;;;5114062;28;20660;-53
2022/04/22 11:33:13;;;;;;;6.50;3.80;;;;;;;;;;5114522;28;20221;-54
2022/04/22 11:35:39;;;;;;;5.87;3.50;;;;;;;;;;5113831;28;20574;-53
2022/04/22 11:38:07;;;;;;;4.53;3.40;;;;;;;;;;5114169;28;20753;-55
2022/04/22 11:40:38;;;;;;;6.20;3.77;;;;;;;;;;5114126;28;20221;-55
2022/04/22 11:43:07;;;;;;;6.13;3.30;;;;;;;;;;5114318;28;20225;-54
2022/04/22 11:45:35;;;;;;;3.50;3.20;;;;;;;;;;5114127;28;20194;-54
2022/04/22 11:48:06;;;;;;;5.60;3.50;;;;;;;;;;5114343;28;20289;-55
2022/04/22 11:50:38;;;;;;;5.53;3.43;;;;;;;;;;5113917;28;20281;-54
2022/04/22 11:53:07;;;;;;;4.70;3.70;;;;;;;;;;5114023;28;20227;-54
2022/04/22 11:55:34;;;;;;;4.80;3.90;;;;;;;;;;5113217;28;20381;-54
2022/04/22 11:58:01;;;;;;;7.63;3.77;;;;;;;;;;5113722;28;20229;-54
2022/04/22 12:05:56;;;;;;;5.17;3.93;;;;;;;;;;5113462;28;20192;-54
2022/04/22 12:08:22;;;;;;;6.97;3.80;;;;;;;;;;5113228;28;20194;-54
2022/04/22 12:10:51;;;;;;;5.00;3.57;;;;;;;;;;5113370;27;20339;-54
2022/04/22 12:13:18;;;;;;;4.47;3.67;;;;;;;;;;5113437;28;20621;-55
2022/04/22 12:15:46;;;;;;;8.00;3.60;;;;;;;;;;5113446;28;20204;-53
2022/04/22 12:18:27;;;;;;;5.37;3.70;;;;;;;;;;5113594;28;20226;-53
2022/04/22 12:20:53;;;;;;;5.20;3.90;;;;;;;;;;5111314;28;20198;-53
2022/04/22 12:23:21;;;;;;;4.07;3.30;;;;;;;;;;5113041;28;20195;-52
2022/04/22 12:25:54;;;;;;;5.97;3.93;;;;;;;;;;5113165;28;20229;-53
2022/04/22 12:28:20;;;;;;;4.87;4.00;;;;;;;;;;5113192;28;20202;-52
2022/04/22 12:30:47;;;;;;;4.37;3.40;;;;;;;;;;5113474;28;20239;-53
2022/04/22 12:33:17;;;;;;;4.77;3.40;;;;;;;;;;5113085;28;20611;-53
2022/04/22 12:35:44;;;;;;;3.63;3.30;;;;;;;;;;5113031;28;20194;-53
2022/04/22 12:38:12;;;;;;;4.40;3.03;;;;;;;;;;5113126;28;20252;-52
2022/04/22 12:40:45;;;;;;;5.97;3.63;;;;;;;;;;5113146;28;20851;-53
2022/04/22 12:43:23;;;;;;;4.17;2.90;;;;;;;;;;5113194;28;20198;-53
2022/04/22 12:54:11;;;;;;;5.60;3.23;;;;;;;;;;5112925;28;20189;-54
2022/04/22 12:56:37;;;;;;;5.33;3.10;;;;;;;;;;5112470;28;20202;-54
2022/04/22 12:59:06;;;;;;;7.47;3.13;;;;;;;;;;5112814;28;20229;-54
2022/04/22 13:01:34;;;;;;;4.50;2.90;;;;;;;;;;5112715;28;20206;-53
2022/04/22 13:04:00;;;;;;;5.17;2.93;;;;;;;;;;5112797;28;20244;-55
2022/04/22 13:06:42;;;;;;;3.83;2.90;;;;;;;;;;5112440;28;20194;-54
2022/04/22 13:09:09;;;;;;;5.63;2.80;;;;;;;;;;5112585;28;20194;-54
2022/04/22 13:11:35;;;;;;;3.87;2.87;;;;;;;;;;5112607;28;20195;-54
2022/04/22 13:14:01;;;;;;;14.20;2.70;;;;;;;;;;5112517;28;20258;-53
2022/04/22 13:16:29;;;;;;;3.80;2.70;;;;;;;;;;5112449;28;20251;-54
2022/04/22 13:18:55;;;;;;;3.10;2.30;;;;;;;;;;5112393;28;20676;-53
2022/04/22 13:21:21;;;;;;;3.10;2.60;;;;;;;;;;5112517;28;20198;-54
2022/04/22 13:23:47;;;;;;;3.60;2.70;;;;;;;;;;5111804;28;20222;-54
2022/04/22 13:26:13;;;;;;;2.97;2.30;;;;;;;;;;5112282;28;20206;-54
2022/04/22 13:28:40;;;;;;;3.97;2.40;;;;;;;;;;5112309;28;20198;-54
2022/04/22 13:31:06;;;;;;;2.87;2.17;;;;;;;;;;5112303;28;20247;-54
2022/04/22 13:33:34;;;;;;;3.63;2.40;;;;;;;;;;5112328;28;20190;-54
2022/04/22 13:36:01;;;;;;;3.50;2.50;;;;;;;;;;5112242;28;20344;-53
2022/04/22 13:38:27;;;;;;;6.40;2.40;;;;;;;;;;5112282;28;20735;-53
2022/04/22 13:40:53;;;;;;;3.57;2.27;;;;;;;;;;5112257;28;20186;-54
2022/04/22 13:43:19;;;;;;;3.30;2.63;;;;;;;;;;5112374;28;20285;-54
2022/04/22 13:54:02;;;;;;;4.47;2.30;;;;;;;;;;5111231;28;20683;-53
2022/04/22 13:56:28;;;;;;;5.53;2.40;;;;;;;;;;5110233;28;20202;-53
2022/04/22 13:58:54;;;;;;;2.53;2.27;;;;;;;;;;5109879;28;20218;-52
2022/04/22 14:01:20;;;;;;;3.03;2.10;;;;;;;;;;5109871;28;20228;-53
2022/04/22 14:03:46;;;;;;;3.63;2.07;;;;;;;;;;5109876;28;20206;-53
2022/04/22 14:06:11;;;;;;;3.07;2.43;;;;;;;;;;5109886;28;20684;-52
2022/04/22 14:08:39;;;;;;;4.13;2.53;;;;;;;;;;5110433;28;20418;-53
2022/04/22 14:11:07;;;;;;;3.50;2.10;;;;;;;;;;5111268;28;20657;-53
2022/04/22 14:13:33;;;;;;;3.53;1.90;;;;;;;;;;5111439;28;20194;-54
2022/04/22 14:15:59;;;;;;;3.27;2.40;;;;;;;;;;5111770;28;20536;-54
2022/04/22 14:18:30;;;;;;;4.63;2.13;;;;;;;;;;5111403;28;20233;-53
2022/04/22 14:20:57;;;;;;;2.87;2.30;;;;;;;;;;5111573;28;20272;-53
2022/04/22 14:23:23;;;;;;;5.30;2.37;;;;;;;;;;5111272;28;20800;-54
2022/04/22 14:25:50;;;;;;;3.40;2.10;;;;;;;;;;5111182;28;20696;-52
2022/04/22 14:28:16;;;;;;;2.50;2.30;;;;;;;;;;5112019;28;20202;-54
2022/04/22 14:30:44;;;;;;;2.60;2.40;;;;;;;;;;5111979;28;20202;-53
2022/04/22 14:33:11;;;;;;;3.67;2.50;;;;;;;;;;5111778;28;20278;-51
2022/04/22 14:35:37;;;;;;;3.37;2.23;;;;;;;;;;5113646;28;20198;-52
2022/04/22 14:38:03;;;;;;;3.50;2.60;;;;;;;;;;5115160;28;20225;-52
2022/04/22 14:40:29;;;;;;;2.97;2.20;;;;;;;;;;5115459;28;20572;-53
2022/04/22 14:42:57;;;;;;;3.03;2.07;;;;;;;;;;5115461;28;20232;-53
2022/04/22 14:45:26;;;;;;;1.90;1.70;;;;;;;;;;5115519;28;20447;-53
2022/04/22 14:47:53;;;;;;;2.63;1.90;;;;;;;;;;5115178;28;20223;-52
2022/04/22 14:50:19;;;;;;;2.50;1.77;;;;;;;;;;5115495;28;20196;-54
2022/04/22 14:52:47;;;;;;;1.90;1.70;;;;;;;;;;5115173;28;20257;-52
2022/04/22 14:55:13;;;;;;;3.00;2.00;;;;;;;;;;5115272;28;20281;-54
2022/04/22 14:57:39;;;;;;;6.03;2.33;;;;;;;;;;5115014;28;20305;-52
2022/04/22 15:00:07;;;;;;;4.20;3.80;;;;;;;;;;5115090;28;20194;-52
2022/04/22 15:02:33;;;;;;;5.00;2.30;;;;;;;;;;5114905;28;20204;-53
2022/04/22 15:04:59;;;;;;;3.30;2.20;;;;;;;;;;5115006;28;20681;-51
2022/04/22 15:07:27;;;;;;;4.20;2.20;;;;;;;;;;5114913;28;20202;-52
2022/04/22 15:09:53;;;;;;;2.90;2.47;;;;;;;;;;5114823;28;20216;-52
2022/04/22 15:12:20;;;;;;;2.60;2.40;;;;;;;;;;5114753;28;20252;-53
2022/04/22 15:14:46;;;;;;;2.90;1.97;;;;;;;;;;5114600;28;20245;-53
2022/04/22 15:17:14;;;;;;;3.87;2.30;;;;;;;;;;5114746;28;20251;-53
2022/04/22 15:25:09;;;;;;;2.30;2.10;;;;;;;;;;5114486;28;20339;-54
2022/04/22 15:27:36;;;;;;;2.43;2.23;;;;;;;;;;5114341;28;20277;-53
2022/04/22 15:30:03;;;;;;;2.43;2.20;;;;;;;;;;5114618;28;20200;-55
2022/04/22 15:32:30;;;;;;;4.37;2.37;;;;;;;;;;5114591;28;20199;-53
2022/04/22 15:34:58;;;;;;;2.60;2.40;;;;;;;;;;5114228;28;20210;-53
2022/04/22 15:37:24;;;;;;;3.07;2.37;;;;;;;;;;5114350;28;20201;-52
2022/04/22 15:39:50;;;;;;;4.80;2.60;;;;;;;;;;5114275;28;20281;-52
2022/04/22 15:42:16;;;;;;;3.07;2.40;;;;;;;;;;5112718;28;20206;-53
2022/04/22 15:44:46;;;;;;;3.87;2.23;;;;;;;;;;5112507;28;20221;-53
2022/04/22 15:47:12;;;;;;;4.20;2.30;;;;;;;;;;5113923;28;20198;-53
2022/04/22 15:49:40;;;;;;;3.17;2.43;;;;;;;;;;5113964;28;20654;-54
2022/04/22 15:52:08;;;;;;;5.10;2.40;;;;;;;;;;5113977;28;20670;-53
2022/04/22 15:54:34;;;;;;;5.13;2.40;;;;;;;;;;5114046;28;20203;-53
2022/04/22 15:57:00;;;;;;;2.93;2.50;;;;;;;;;;5114063;28;20194;-52
2022/04/22 15:59:26;;;;;;;4.37;2.17;;;;;;;;;;5113927;28;20587;-52
2022/04/22 16:01:52;;;;;;;2.73;2.40;;;;;;;;;;5113799;28;20203;-53